Time;durP1;ratioP1;P1;durP2;ratioP2;P2;SDS_P1;SDS_P2;PMS_P1;PMS_P2;Temp;Humidity;BMP_temperature;BMP_pressure;BME280_temperature;BME280_humidity;BME280_pressure;Samples;Min_cycle;Max_cycle;Signal;HPM_P1;HPM_P2
2023/01/31 00:01:10;;;;;;;10.05;2.30;;;;;;;-144.47;85.61;53050.75;4991742;28;20034;-71
2023/01/31 00:03:36;;;;;;;14.80;1.90;;;;;;;-144.47;84.77;53066.63;4990738;28;20072;-69
2023/01/31 00:06:13;;;;;;;10.50;1.10;;;;;;;-144.47;84.30;53050.75;4989260;28;20098;-66
2023/01/31 00:08:38;;;;;;;8.70;1.20;;;;;;;-144.47;84.21;53068.63;4993176;28;20031;-69
2023/01/31 00:11:04;;;;;;;10.43;1.85;;;;;;;-144.47;82.25;53022.94;4990191;28;20508;-67
2023/01/31 00:13:29;;;;;;;12.00;1.55;;;;;;;-144.47;82.03;53064.66;4990128;28;20014;-68
2023/01/31 00:15:55;;;;;;;8.85;1.38;;;;;;;-144.47;80.28;53042.78;4990377;28;20041;-70
2023/01/31 00:18:21;;;;;;;14.15;2.25;;;;;;;-144.47;79.15;53036.84;4989729;28;20042;-66
2023/01/31 00:20:46;;;;;;;12.05;2.00;;;;;;;-144.47;78.91;53050.75;4993194;28;20113;-70
2023/01/31 00:23:12;;;;;;;9.82;1.60;;;;;;;-144.47;78.82;53032.88;4993472;28;20030;-70
2023/01/31 00:25:37;;;;;;;16.80;2.92;;;;;;;-144.47;78.75;53050.75;4989809;28;20109;-70
2023/01/31 00:28:02;;;;;;;10.82;1.80;;;;;;;-144.47;78.79;53046.75;4989028;28;20025;-68
2023/01/31 00:30:28;;;;;;;13.05;1.75;;;;;;;-144.47;78.64;53056.69;4989461;28;20409;-70
2023/01/31 00:32:53;;;;;;;13.57;2.42;;;;;;;-144.47;78.81;53028.88;5004412;28;20022;-71
2023/01/31 00:35:19;;;;;;;13.32;2.45;;;;;;;-144.47;78.85;53034.84;4993446;28;20028;-68
2023/01/31 00:37:44;;;;;;;13.30;1.90;;;;;;;-144.47;78.59;53040.81;4991544;28;20575;-70
2023/01/31 00:40:10;;;;;;;14.20;2.10;;;;;;;-144.47;78.67;53032.88;4988914;28;20034;-68
2023/01/31 00:42:35;;;;;;;17.42;2.65;;;;;;;-144.47;78.28;52995.13;4989409;28;20411;-70
2023/01/31 00:45:01;;;;;;;12.40;2.08;;;;;;;-144.47;78.03;53015.00;4989507;28;20014;-70
2023/01/31 00:47:26;;;;;;;16.25;3.08;;;;;;;-144.47;78.32;53034.84;4990595;28;20507;-70
2023/01/31 00:49:52;;;;;;;7.53;1.40;;;;;;;-144.47;79.16;53024.91;4989480;28;20437;-67
2023/01/31 00:52:17;;;;;;;16.58;1.95;;;;;;;-144.47;80.84;53022.94;4988632;28;20102;-70
2023/01/31 00:54:42;;;;;;;7.22;1.35;;;;;;;-144.47;81.99;53046.75;4976637;28;20083;-70
2023/01/31 00:57:08;;;;;;;17.17;2.45;;;;;;;-144.47;83.32;53034.84;4978378;28;20046;-67
2023/01/31 00:59:33;;;;;;;11.65;2.65;;;;;;;-144.47;83.22;53046.75;4970876;28;20426;-69
2023/01/31 01:01:58;;;;;;;18.30;2.42;;;;;;;-144.47;82.85;53054.72;4985379;28;20045;-66
2023/01/31 01:04:24;;;;;;;11.80;1.83;;;;;;;-144.47;83.56;53050.75;4987811;28;20118;-69
2023/01/31 01:06:49;;;;;;;13.75;2.03;;;;;;;-144.47;83.89;53056.69;4978337;28;20026;-69
2023/01/31 01:09:15;;;;;;;11.43;1.52;;;;;;;-144.47;83.74;53058.69;4985751;28;20212;-70
2023/01/31 01:11:41;;;;;;;12.98;3.53;;;;;;;-144.47;83.39;53040.81;4988818;28;20109;-66
2023/01/31 01:14:06;;;;;;;23.20;1.88;;;;;;;-144.47;84.22;53072.59;4988283;28;20109;-69
2023/01/31 01:16:35;;;;;;;7.85;1.27;;;;;;;-144.47;84.93;53060.66;4988607;28;20056;-70
2023/01/31 01:19:06;;;;;;;13.52;1.40;;;;;;;-144.47;85.83;53038.81;4988373;28;20056;-67
2023/01/31 01:21:37;;;;;;;8.77;1.25;;;;;;;-144.47;86.43;53076.56;4989207;28;20038;-67
2023/01/31 01:24:03;;;;;;;20.63;2.42;;;;;;;-144.47;86.67;53044.78;4984868;28;20041;-67
2023/01/31 01:26:31;;;;;;;9.48;1.58;;;;;;;-144.47;86.93;53074.56;4979816;28;20069;-67
2023/01/31 01:28:57;;;;;;;8.75;1.25;;;;;;;-144.47;87.22;53052.72;4972227;28;20039;-70
2023/01/31 01:31:30;;;;;;;11.85;1.63;;;;;;;-144.47;87.29;53060.66;4982150;28;20077;-68
2023/01/31 01:34:00;;;;;;;20.75;2.60;;;;;;;-144.47;87.54;53064.66;4991728;28;20022;-69
2023/01/31 01:36:27;;;;;;;12.05;2.13;;;;;;;-144.47;88.04;53074.56;4994222;28;20433;-69
2023/01/31 01:38:53;;;;;;;7.15;1.85;;;;;;;-144.47;88.54;53050.75;4998451;28;20034;-67
2023/01/31 01:41:19;;;;;;;17.33;1.98;;;;;;;-144.47;88.66;53062.66;4988909;28;20038;-70
2023/01/31 01:43:49;;;;;;;16.08;2.45;;;;;;;-144.47;88.81;53046.75;4988104;28;20034;-70
2023/01/31 01:46:39;;;;;;;6.57;1.15;;;;;;;-144.47;88.98;53060.66;4988187;28;20101;-66
2023/01/31 01:49:19;;;;;;;11.63;1.75;;;;;;;-144.47;88.88;53044.78;4988939;28;20103;-67
2023/01/31 01:51:48;;;;;;;12.43;1.80;;;;;;;-144.47;88.54;53060.66;4988523;28;20362;-70
2023/01/31 01:54:18;;;;;;;7.75;1.60;;;;;;;-144.47;88.62;53060.66;4988719;28;20022;-69
2023/01/31 01:56:48;;;;;;;11.00;1.42;;;;;;;-144.47;88.31;53088.47;4988272;28;20037;-68
2023/01/31 01:59:25;;;;;;;16.73;3.47;;;;;;;-144.47;87.78;53042.78;4988500;28;20086;-69
2023/01/31 02:01:54;;;;;;;7.35;1.00;;;;;;;-144.47;87.62;53078.53;4988938;28;20029;-67
2023/01/31 02:04:22;;;;;;;;;;;;;;;-144.47;87.76;53042.78;4988816;28;20026;-68
2023/01/31 02:06:47;;;;;;;15.23;2.03;;;;;;;-144.47;88.06;53036.84;4988560;28;19917;-70
2023/01/31 02:09:27;;;;;;;10.32;1.83;;;;;;;-144.47;88.26;53058.69;5000897;28;20026;-66
2023/01/31 02:11:53;;;;;;;13.45;1.95;;;;;;;-144.47;88.24;53050.75;4988270;28;20688;-66
2023/01/31 02:14:19;;;;;;;12.57;2.05;;;;;;;-144.47;88.17;53052.72;4987632;28;20026;-69
2023/01/31 02:16:44;;;;;;;7.28;1.50;;;;;;;-144.47;88.58;53042.78;4987254;28;20038;-66
2023/01/31 02:19:54;;;;;;;5.78;1.35;;;;;;;-144.47;88.63;53058.69;4987889;28;20030;-70
2023/01/31 02:22:32;;;;;;;12.98;1.70;;;;;;;-144.47;88.51;53072.59;4957422;28;20116;-68
2023/01/31 02:25:42;;;;;;;7.45;1.63;;;;;;;-144.47;88.63;53042.78;4968793;28;20106;-67
2023/01/31 02:28:31;;;;;;;8.35;1.70;;;;;;;-144.47;88.18;53058.69;4980384;28;20027;-66
2023/01/31 02:31:41;;;;;;;9.80;1.25;;;;;;;-144.47;88.35;53054.72;4984251;28;20425;-70
2023/01/31 02:34:06;;;;;;;12.57;1.48;;;;;;;-144.47;88.11;53060.66;4957025;28;20035;-68
2023/01/31 02:37:24;;;;;;;9.52;1.08;;;;;;;-144.47;87.71;53066.63;4996955;28;20572;-71
2023/01/31 02:40:00;;;;;;;9.35;1.98;;;;;;;-144.47;87.34;53052.72;4916166;28;20430;-70
2023/01/31 02:42:42;;;;;;;9.95;1.85;;;;;;;-144.47;87.07;53040.81;4988464;28;20026;-66
2023/01/31 02:45:21;;;;;;;6.55;1.38;;;;;;;-144.47;87.26;53070.59;4987725;28;20050;-69
2023/01/31 02:47:56;;;;;;;6.80;1.52;;;;;;;-144.47;87.04;53042.78;4981973;28;20049;-68
2023/01/31 02:50:22;;;;;;;4.20;0.90;;;;;;;-144.47;87.26;53024.91;4988950;28;20038;-70
2023/01/31 02:52:50;;;;;;;10.45;2.25;;;;;;;-144.47;86.55;53074.56;4991286;28;20038;-66
2023/01/31 02:58:08;;;;;;;9.80;1.38;;;;;;;-144.47;86.00;53050.75;4991311;28;20177;-67
2023/01/31 03:00:37;;;;;;;11.45;2.30;;;;;;;-144.47;85.81;53040.81;4990764;28;20029;-68
2023/01/31 03:03:06;;;;;;;12.15;1.70;;;;;;;-144.47;85.75;53062.66;4991085;28;20030;-67
2023/01/31 03:05:32;;;;;;;7.50;1.20;;;;;;;-144.47;86.09;53064.66;4991103;28;20105;-68
2023/01/31 03:08:01;;;;;;;11.68;1.85;;;;;;;-144.47;86.09;53054.72;4995410;28;20160;-69
2023/01/31 03:10:50;;;;;;;9.32;1.60;;;;;;;-144.47;86.35;53026.91;5020090;22;20050;-68
2023/01/31 03:13:34;;;;;;;10.93;2.08;;;;;;;-144.47;86.63;53066.63;5002221;28;20033;-66
2023/01/31 03:19:20;;;;;;;10.48;1.75;;;;;;;-144.47;86.73;53038.81;5011025;28;20040;-68
2023/01/31 03:21:55;;;;;;;13.40;1.83;;;;;;;-144.47;86.74;53034.84;4992470;28;20034;-66
2023/01/31 03:24:25;;;;;;;8.25;1.30;;;;;;;-144.47;86.66;53060.66;4984696;28;20027;-68
2023/01/31 03:26:52;;;;;;;12.63;1.80;;;;;;;-144.47;86.59;53044.78;4986647;28;20166;-67
2023/01/31 03:29:17;;;;;;;10.10;1.38;;;;;;;-144.47;86.45;53054.72;4991849;28;20126;-67
2023/01/31 03:32:07;;;;;;;7.30;1.35;;;;;;;-144.47;86.70;53092.44;4987896;28;20026;-67
2023/01/31 03:34:32;;;;;;;14.50;1.75;;;;;;;-144.47;86.62;53032.88;4995348;28;20045;-66
2023/01/31 03:37:14;;;;;;;15.50;2.10;;;;;;;-144.47;86.50;53042.78;5001353;28;20476;-69
2023/01/31 03:40:05;;;;;;;15.77;2.72;;;;;;;-144.47;86.52;53050.75;4997785;28;20022;-67
2023/01/31 03:42:51;;;;;;;17.58;2.13;;;;;;;-144.47;86.55;53066.63;4992559;28;20034;-67
2023/01/31 03:45:29;;;;;;;7.57;1.55;;;;;;;-144.47;86.50;53026.91;4992346;28;20145;-68
2023/01/31 03:47:56;;;;;;;20.50;1.98;;;;;;;-144.47;86.32;53038.81;4991769;28;20034;-68
2023/01/31 03:50:29;;;;;;;16.30;2.40;;;;;;;-144.47;86.05;53054.72;4992047;28;20034;-64
2023/01/31 03:53:06;;;;;;;16.10;2.70;;;;;;;-144.47;86.25;53042.78;4992125;28;20022;-67
2023/01/31 03:55:42;;;;;;;18.42;2.20;;;;;;;-144.47;85.94;53024.91;4992088;28;20030;-67
2023/01/31 03:58:12;;;;;;;15.82;2.35;;;;;;;-144.47;85.95;53070.59;4991967;28;20026;-67
2023/01/31 04:00:40;;;;;;;17.27;1.85;;;;;;;-144.47;85.67;53050.75;4991621;28;20033;-67
2023/01/31 04:03:17;;;;;;;26.67;3.15;;;;;;;-144.47;85.45;53040.81;4991026;28;20046;-66
2023/01/31 04:05:44;;;;;;;20.10;2.50;;;;;;;-144.47;85.01;53052.72;4991499;28;20046;-68
2023/01/31 04:08:09;;;;;;;16.25;2.63;;;;;;;-144.47;84.84;53026.91;4991767;28;20026;-67
2023/01/31 04:10:35;;;;;;;14.10;1.80;;;;;;;-144.47;84.76;53050.75;4991128;28;20113;-70
2023/01/31 04:13:01;;;;;;;10.43;1.98;;;;;;;-144.47;84.51;53048.75;4991593;28;20083;-67
2023/01/31 04:15:26;;;;;;;16.48;2.53;;;;;;;-144.47;85.01;53024.91;4991268;28;20062;-68
2023/01/31 04:17:51;;;;;;;7.85;1.58;;;;;;;-144.47;86.84;53056.69;4990849;28;20030;-67
2023/01/31 04:20:17;;;;;;;7.57;1.52;;;;;;;-144.47;88.81;53062.66;4991256;28;20109;-67
2023/01/31 04:22:42;;;;;;;16.92;1.92;;;;;;;-144.47;90.34;53072.59;4991613;28;20026;-68
2023/01/31 04:25:08;;;;;;;7.70;1.40;;;;;;;-144.47;91.41;53054.72;4991236;28;20507;-66
2023/01/31 04:27:33;;;;;;;9.23;1.83;;;;;;;-144.47;92.46;53044.78;4986578;28;20023;-67
2023/01/31 04:29:58;;;;;;;11.45;1.58;;;;;;;-144.47;93.06;53044.78;4979174;28;20433;-67
2023/01/31 04:32:24;;;;;;;12.95;1.42;;;;;;;-144.47;93.49;53050.75;4990649;28;20030;-68
2023/01/31 04:34:49;;;;;;;14.73;2.63;;;;;;;-144.47;94.04;53070.59;4994897;28;20018;-67
2023/01/31 04:37:16;;;;;;;5.18;1.20;;;;;;;-144.47;94.40;53056.69;5006662;28;20029;-65
2023/01/31 04:39:41;;;;;;;7.75;1.25;;;;;;;-144.47;94.43;53084.50;4996624;28;20034;-65
2023/01/31 04:42:06;;;;;;;7.88;2.03;;;;;;;-144.47;94.65;53064.66;4991275;28;20499;-64
2023/01/31 04:44:32;;;;;;;7.70;1.52;;;;;;;-144.47;94.99;53048.75;4990797;28;20459;-67
2023/01/31 04:46:57;;;;;;;13.70;1.48;;;;;;;-144.47;94.97;53060.66;4990501;28;20050;-68
2023/01/31 04:49:22;;;;;;;9.52;1.38;;;;;;;-144.47;94.85;53070.59;4990376;28;20034;-68
2023/01/31 04:51:48;;;;;;;16.50;1.80;;;;;;;-144.47;94.60;53054.72;4990855;28;20022;-68
2023/01/31 04:54:13;;;;;;;14.25;1.88;;;;;;;-144.47;94.46;53082.53;4990739;28;20504;-66
2023/01/31 04:56:38;;;;;;;9.05;1.65;;;;;;;-144.47;94.58;53086.50;4990804;28;20101;-67
2023/01/31 04:59:04;;;;;;;10.65;1.48;;;;;;;-144.47;94.27;53066.63;4990709;28;20018;-64
2023/01/31 05:01:29;;;;;;;7.25;1.85;;;;;;;-144.47;93.86;53066.63;4990261;28;20026;-67
2023/01/31 05:03:55;;;;;;;15.23;2.03;;;;;;;-144.47;93.48;53064.66;4989966;28;20034;-67
2023/01/31 05:06:21;;;;;;;10.55;1.58;;;;;;;-144.47;93.54;53072.59;4985971;28;20031;-67
2023/01/31 05:08:47;;;;;;;6.85;1.75;;;;;;;-144.47;93.01;53088.47;4996563;28;20049;-65
2023/01/31 05:11:12;;;;;;;9.32;2.03;;;;;;;-144.47;93.00;53062.66;4990119;28;20046;-68
2023/01/31 05:13:38;;;;;;;13.95;2.78;;;;;;;-144.47;93.04;53066.63;4989275;28;20026;-67
2023/01/31 05:16:06;;;;;;;14.75;2.10;;;;;;;-144.47;93.05;53056.69;4977465;28;20027;-65
2023/01/31 05:18:34;;;;;;;13.18;1.75;;;;;;;-144.47;93.15;53060.66;4988694;28;20424;-63
2023/01/31 05:20:59;;;;;;;15.75;2.85;;;;;;;-144.47;92.62;53062.66;4989418;28;20022;-66
2023/01/31 05:23:24;;;;;;;5.78;1.35;;;;;;;-144.47;92.56;53056.69;4989866;28;20040;-66
2023/01/31 05:25:50;;;;;;;8.95;1.77;;;;;;;-144.47;92.41;53054.72;4990238;28;20037;-67
2023/01/31 05:28:16;;;;;;;17.73;2.35;;;;;;;-144.47;92.19;53066.63;4990128;28;20424;-64
2023/01/31 05:30:41;;;;;;;13.63;2.15;;;;;;;-144.47;91.91;53042.78;4990008;28;20022;-67
2023/01/31 05:33:06;;;;;;;7.38;2.25;;;;;;;-144.47;91.92;53076.56;4992746;28;20391;-68
2023/01/31 05:35:32;;;;;;;16.10;2.50;;;;;;;-144.47;91.57;53072.59;4996034;28;20055;-66
2023/01/31 05:37:58;;;;;;;13.88;2.42;;;;;;;-144.47;91.56;53070.59;5001365;28;20075;-67
2023/01/31 05:40:23;;;;;;;15.05;2.13;;;;;;;-144.47;91.23;53038.81;4989816;28;20033;-66
2023/01/31 05:42:56;;;;;;;13.57;2.20;;;;;;;-144.47;90.86;53066.63;4990506;28;20034;-69
2023/01/31 05:45:22;;;;;;;16.63;2.33;;;;;;;-144.47;90.92;53048.75;4990076;28;20065;-68
2023/01/31 05:47:48;;;;;;;19.00;2.00;;;;;;;-144.47;90.54;53048.75;4989767;28;20465;-68
2023/01/31 05:50:14;;;;;;;17.23;2.22;;;;;;;-144.47;90.15;53054.72;4990242;28;20046;-66
2023/01/31 05:52:39;;;;;;;9.27;2.00;;;;;;;-144.47;90.05;53066.63;4990146;28;20030;-66
2023/01/31 05:55:05;;;;;;;11.02;1.65;;;;;;;-144.47;90.14;53084.50;4990080;28;20022;-67
2023/01/31 05:57:30;;;;;;;13.38;2.08;;;;;;;-144.47;90.00;53050.75;4989213;28;20023;-67
2023/01/31 05:59:56;;;;;;;7.82;1.45;;;;;;;-144.47;90.23;53054.72;4989648;28;20044;-67
2023/01/31 06:02:21;;;;;;;9.68;1.63;;;;;;;-144.47;89.83;53078.53;4989775;28;20459;-70
2023/01/31 06:04:48;;;;;;;10.23;2.63;;;;;;;-144.47;89.89;53060.66;5000794;28;20472;-67
2023/01/31 06:07:13;;;;;;;8.70;1.92;;;;;;;-144.47;89.53;53058.69;4988602;28;20022;-66
2023/01/31 06:09:40;;;;;;;12.25;1.85;;;;;;;-144.47;89.59;53036.84;4999705;28;20037;-68
2023/01/31 06:12:10;;;;;;;15.25;2.28;;;;;;;-144.47;89.58;53040.81;4987638;28;20030;-66
2023/01/31 06:14:36;;;;;;;11.13;2.00;;;;;;;-144.47;89.17;53050.75;4986754;28;20046;-64
2023/01/31 06:17:02;;;;;;;16.20;2.45;;;;;;;-144.47;89.44;53062.66;4988414;28;20038;-67
2023/01/31 06:19:28;;;;;;;17.33;1.80;;;;;;;-144.47;89.57;53036.84;4990002;28;20042;-68
2023/01/31 06:21:53;;;;;;;5.97;1.52;;;;;;;-144.47;88.96;53074.56;4989692;28;20037;-67
2023/01/31 06:24:18;;;;;;;9.63;1.40;;;;;;;-144.47;89.07;53052.72;4990137;28;20046;-69
2023/01/31 06:26:44;;;;;;;10.38;2.00;;;;;;;-144.47;88.91;53060.66;4992574;28;20054;-66
2023/01/31 06:29:09;;;;;;;14.77;1.70;;;;;;;-144.47;88.44;53028.88;4993573;28;20038;-70
2023/01/31 06:31:34;;;;;;;7.80;1.30;;;;;;;-144.47;87.77;53060.66;4988404;28;20216;-66
2023/01/31 06:34:00;;;;;;;21.00;1.48;;;;;;;-144.47;88.01;53056.69;5000409;28;20017;-69
2023/01/31 06:36:25;;;;;;;13.63;2.45;;;;;;;-144.47;87.06;53068.63;4987846;28;20184;-69
2023/01/31 06:38:51;;;;;;;15.10;1.90;;;;;;;-144.47;86.60;53050.75;4993098;28;20056;-66
2023/01/31 06:41:18;;;;;;;14.20;1.67;;;;;;;-144.47;86.50;53066.63;4994347;28;20082;-68
2023/01/31 06:43:43;;;;;;;21.83;2.63;;;;;;;-144.47;86.47;53050.75;4980707;28;20096;-67
2023/01/31 06:46:09;;;;;;;8.43;1.92;;;;;;;-144.47;86.75;53032.88;4992842;28;20022;-68
2023/01/31 06:48:34;;;;;;;9.10;1.95;;;;;;;-144.47;86.17;53046.75;4992991;28;20037;-65
2023/01/31 06:50:59;;;;;;;11.07;2.33;;;;;;;-144.47;85.63;53036.84;4993151;28;20484;-68
2023/01/31 06:53:25;;;;;;;12.90;1.75;;;;;;;-144.47;85.78;53026.91;4993204;28;20374;-68
2023/01/31 06:55:50;;;;;;;14.10;1.75;;;;;;;-144.47;85.54;53022.94;4993562;28;20076;-67
2023/01/31 06:58:17;;;;;;;17.08;3.00;;;;;;;-144.47;84.11;53070.59;4992719;28;20033;-66
2023/01/31 07:00:42;;;;;;;9.38;2.47;;;;;;;-144.47;84.14;53058.69;4992528;28;20518;-63
2023/01/31 07:03:07;;;;;;;8.32;1.75;;;;;;;-144.47;83.82;53078.53;4992699;28;20621;-67
2023/01/31 07:05:33;;;;;;;5.90;1.35;;;;;;;-144.47;83.27;53034.84;4993211;28;20105;-68
2023/01/31 07:07:58;;;;;;;20.30;2.40;;;;;;;-144.47;83.24;53042.78;4997308;28;20497;-67
2023/01/31 07:10:23;;;;;;;10.18;1.20;;;;;;;-144.47;83.14;53022.94;4993651;28;20026;-64
2023/01/31 07:12:49;;;;;;;12.65;1.60;;;;;;;-144.47;82.30;53038.81;4994219;28;20031;-69
2023/01/31 07:15:14;;;;;;;13.52;2.75;;;;;;;-144.47;81.77;53054.72;4992936;28;20584;-66
2023/01/31 07:17:40;;;;;;;9.38;1.55;;;;;;;-144.47;80.91;53018.97;4992469;28;20029;-67
2023/01/31 07:20:06;;;;;;;16.75;2.08;;;;;;;-144.47;80.68;53016.97;4992458;28;20566;-67
2023/01/31 07:22:31;;;;;;;16.20;2.47;;;;;;;-144.47;80.59;53036.84;4992810;28;20030;-66
2023/01/31 07:24:57;;;;;;;7.45;1.65;;;;;;;-144.47;80.06;53050.75;4992690;28;20045;-67
2023/01/31 07:27:23;;;;;;;10.68;1.70;;;;;;;-144.47;79.11;53050.75;4992649;28;20025;-68
2023/01/31 07:29:48;;;;;;;8.82;1.73;;;;;;;-144.47;78.86;53046.75;4988281;28;20019;-68
2023/01/31 07:32:14;;;;;;;8.88;1.30;;;;;;;-144.47;78.48;53038.81;4991674;28;20022;-67
2023/01/31 07:34:40;;;;;;;6.13;1.65;;;;;;;-144.47;78.69;53028.88;4984090;28;20447;-68
2023/01/31 07:37:05;;;;;;;17.58;2.45;;;;;;;-144.47;78.90;53066.63;4979879;28;20027;-66
2023/01/31 07:39:30;;;;;;;7.88;1.58;;;;;;;-144.47;79.09;53016.97;4997718;28;21823;-66
2023/01/31 07:41:56;;;;;;;11.60;1.52;;;;;;;-144.47;79.22;53040.81;4992615;28;20416;-68
2023/01/31 07:44:21;;;;;;;7.97;1.48;;;;;;;-144.47;79.32;53007.03;4987003;28;20124;-66
2023/01/31 07:46:47;;;;;;;13.73;1.73;;;;;;;-144.47;79.51;53042.78;4984214;28;20049;-67
2023/01/31 07:49:13;;;;;;;13.07;2.20;;;;;;;-144.47;79.85;53044.78;4989199;28;20105;-66
2023/01/31 07:51:38;;;;;;;10.40;1.88;;;;;;;-144.47;79.89;53034.84;4992684;28;20026;-67
2023/01/31 07:54:06;;;;;;;22.10;2.25;;;;;;;-144.47;79.74;53024.91;4992441;28;20022;-67
2023/01/31 07:56:32;;;;;;;15.60;1.65;;;;;;;-144.47;79.79;53040.81;4992074;28;20028;-67
2023/01/31 07:58:58;;;;;;;16.60;2.72;;;;;;;-144.47;79.97;53056.69;4991592;28;20041;-67
2023/01/31 08:04:13;;;;;;;20.13;2.25;;;;;;;-144.47;79.16;53032.88;4986485;28;20395;-67
2023/01/31 08:06:40;;;;;;;7.10;1.77;;;;;;;-144.47;79.09;53032.88;4982447;28;20050;-67
2023/01/31 08:09:05;;;;;;;6.40;1.38;;;;;;;-144.47;78.77;53024.91;4989110;28;20030;-69
2023/01/31 08:11:31;;;;;;;9.60;1.77;;;;;;;-144.47;78.71;53064.66;4995143;28;20053;-68
2023/01/31 08:13:56;;;;;;;9.20;2.10;;;;;;;-144.47;79.29;53046.75;4990526;28;20396;-64
2023/01/31 08:16:21;;;;;;;10.77;1.50;;;;;;;-144.47;79.07;53046.75;4986246;28;20089;-68
2023/01/31 08:18:48;;;;;;;17.55;2.13;;;;;;;-144.47;78.79;53009.03;4991736;28;20030;-68
2023/01/31 08:21:14;;;;;;;10.50;1.95;;;;;;;-144.47;78.75;53018.97;4989336;28;20026;-66
2023/01/31 08:23:40;;;;;;;12.00;1.42;;;;;;;-144.47;78.79;53020.94;4992154;28;20474;-68
2023/01/31 08:26:10;;;;;;;5.88;1.95;;;;;;;-144.47;78.61;53016.97;4991622;28;20077;-67
2023/01/31 08:28:36;;;;;;;14.10;2.25;;;;;;;-144.47;78.37;53032.88;4993783;28;20056;-65
2023/01/31 08:31:02;;;;;;;18.80;2.13;;;;;;;-144.47;78.43;53026.91;4999561;28;20157;-67
2023/01/31 08:33:27;;;;;;;17.63;1.88;;;;;;;-144.47;78.81;53050.75;5002244;28;20077;-65
2023/01/31 08:35:53;;;;;;;7.15;1.33;;;;;;;-144.47;78.57;53050.75;4986173;28;20468;-63
2023/01/31 08:38:18;;;;;;;6.78;1.58;;;;;;;-144.47;78.97;53034.84;4992305;28;20079;-67
2023/01/31 08:40:44;;;;;;;13.65;2.22;;;;;;;-144.47;78.52;53018.97;4991453;28;20026;-65
2023/01/31 08:43:10;;;;;;;14.38;2.05;;;;;;;-144.47;78.87;53044.78;4991395;28;20026;-68
2023/01/31 08:45:35;;;;;;;11.15;2.08;;;;;;;-144.47;78.62;53026.91;4991181;28;20018;-64
2023/01/31 08:48:01;;;;;;;11.50;1.38;;;;;;;-144.47;78.34;53013.00;4990477;28;20026;-67
2023/01/31 08:50:29;;;;;;;13.32;2.30;;;;;;;-144.47;78.10;53040.81;4991501;28;20058;-67
2023/01/31 08:52:57;;;;;;;5.43;1.67;;;;;;;-144.47;77.80;52999.09;4991713;28;20470;-64
2023/01/31 08:55:23;;;;;;;14.18;2.55;;;;;;;-144.47;77.61;53038.81;4991221;28;20412;-67
2023/01/31 08:57:49;;;;;;;5.28;1.40;;;;;;;-144.47;77.23;53007.03;4991348;28;20512;-68
2023/01/31 09:00:16;;;;;;;10.55;1.67;;;;;;;-144.47;76.67;53034.84;4995837;28;20038;-64
2023/01/31 09:02:42;;;;;;;8.68;1.50;;;;;;;-144.47;76.55;53034.84;4997995;28;20045;-66
2023/01/31 09:05:07;;;;;;;7.07;1.88;;;;;;;-144.47;76.98;53005.06;4990558;28;20076;-64
2023/01/31 09:07:34;;;;;;;5.30;1.67;;;;;;;-144.47;76.91;53048.75;4991557;28;20033;-64
2023/01/31 09:12:45;;;;;;;19.35;2.33;;;;;;;-144.47;76.64;53040.81;4986494;28;20524;-70
2023/01/31 09:15:10;;;;;;;10.52;1.73;;;;;;;-144.47;77.35;53024.91;4987978;28;20059;-69
2023/01/31 09:17:38;;;;;;;9.43;2.22;;;;;;;-144.47;76.50;53024.91;4988291;28;20034;-67
2023/01/31 09:20:05;;;;;;;14.63;1.77;;;;;;;-144.47;76.60;53046.75;4988335;28;20103;-68
2023/01/31 09:22:32;;;;;;;9.23;1.60;;;;;;;-144.47;76.37;53011.00;4988653;28;20112;-67
2023/01/31 09:24:58;;;;;;;8.10;1.65;;;;;;;-144.47;75.93;53040.81;4988132;28;20084;-66
2023/01/31 09:27:23;;;;;;;13.13;2.83;;;;;;;-144.47;76.21;53038.81;4977061;28;20412;-70
2023/01/31 09:29:49;;;;;;;10.35;1.67;;;;;;;-144.47;75.62;53042.78;4986318;28;20077;-66
2023/01/31 09:32:14;;;;;;;11.90;2.80;;;;;;;-144.47;75.68;53028.88;4987250;28;20031;-70
2023/01/31 09:34:39;;;;;;;13.02;1.85;;;;;;;-144.47;75.53;53034.84;4987839;28;20026;-69
2023/01/31 09:37:05;;;;;;;16.02;1.73;;;;;;;-144.47;75.26;52991.16;4982163;28;20036;-69
2023/01/31 09:39:30;;;;;;;15.57;2.35;;;;;;;-144.47;75.11;52991.16;4989531;28;20026;-68
2023/01/31 09:42:09;;;;;;;11.25;2.35;;;;;;;-144.47;74.16;53030.88;4988128;28;20472;-66
2023/01/31 09:44:41;;;;;;;5.78;2.15;;;;;;;-144.47;73.74;52987.19;4977335;28;20018;-68
2023/01/31 09:47:17;;;;;;;4.30;1.42;;;;;;;-144.47;73.60;53032.88;4988265;28;20032;-68
2023/01/31 09:49:50;;;;;;;3.92;1.60;;;;;;;-144.47;73.42;53016.97;4987849;28;20054;-66
2023/01/31 09:52:15;;;;;;;10.45;2.00;;;;;;;-144.47;73.11;52999.09;4984264;28;20032;-69
2023/01/31 09:54:41;;;;;;;11.10;1.70;;;;;;;-144.47;72.85;52999.09;4988007;28;20102;-66
2023/01/31 09:57:12;;;;;;;9.80;1.92;;;;;;;-144.47;72.13;53007.03;4987575;28;20403;-69
2023/01/31 09:59:38;;;;;;;6.10;2.42;;;;;;;-144.47;71.80;52999.09;4990877;28;20022;-70
2023/01/31 10:02:41;;;;;;;5.28;1.88;;;;;;;-144.47;72.25;53020.94;4981971;28;20041;-69
2023/01/31 10:05:25;;;;;;;7.78;2.00;;;;;;;-144.47;71.85;53022.94;4995279;28;20429;-68
2023/01/31 10:07:50;;;;;;;4.82;1.90;;;;;;;-144.47;71.08;53003.06;4994550;28;20026;-69
2023/01/31 10:10:23;;;;;;;7.97;1.52;;;;;;;-144.47;70.98;53003.06;4993171;28;20118;-70
2023/01/31 10:12:54;;;;;;;9.45;2.40;;;;;;;-144.47;71.23;53013.00;4994244;28;20041;-70
2023/01/31 10:15:41;;;;;;;14.30;2.50;;;;;;;-144.47;70.87;53011.00;4994313;28;20073;-66
2023/01/31 10:18:16;;;;;;;6.65;1.85;;;;;;;-144.47;70.51;53011.00;4993487;28;20180;-68
2023/01/31 10:20:48;;;;;;;6.20;1.80;;;;;;;-144.47;70.57;52991.16;4994072;28;20197;-69
2023/01/31 10:23:17;;;;;;;9.85;1.92;;;;;;;-144.47;70.61;53003.06;4993541;28;20096;-69
2023/01/31 10:25:58;;;;;;;15.18;2.47;;;;;;;-144.47;70.39;52991.16;4994806;28;20030;-68
2023/01/31 10:28:37;;;;;;;12.20;2.30;;;;;;;-144.47;70.44;52981.22;4992891;28;20147;-69
2023/01/31 10:31:21;;;;;;;8.20;1.95;;;;;;;-144.47;70.51;52985.19;4990438;28;20429;-68
2023/01/31 10:33:49;;;;;;;12.05;2.13;;;;;;;-144.47;70.27;52977.25;4994587;28;20064;-68
2023/01/31 10:36:33;;;;;;;14.00;2.45;;;;;;;-144.47;70.26;52999.09;4993902;28;20101;-66
2023/01/31 10:39:09;;;;;;;10.98;2.42;;;;;;;-144.47;70.42;52995.13;4994266;28;20089;-69
2023/01/31 10:41:44;;;;;;;7.97;2.40;;;;;;;-144.47;70.42;53024.91;4993831;28;20030;-66
2023/01/31 10:44:31;;;;;;;19.08;2.53;;;;;;;-144.47;70.73;52971.28;4988785;28;20137;-66
2023/01/31 10:46:58;;;;;;;6.85;1.70;;;;;;;-144.47;70.44;53011.00;5007916;28;20365;-69
2023/01/31 10:49:26;;;;;;;13.40;2.13;;;;;;;-144.47;70.82;53011.00;4992537;28;20031;-68
2023/01/31 10:52:07;;;;;;;8.60;1.60;;;;;;;-144.47;71.02;53015.00;4993529;28;20092;-67
2023/01/31 10:55:02;;;;;;;8.07;2.75;;;;;;;-144.47;71.33;53011.00;4993918;28;20046;-70
2023/01/31 10:57:28;;;;;;;10.02;2.42;;;;;;;-144.47;71.26;53013.00;4992381;28;20018;-68
2023/01/31 10:59:54;;;;;;;19.42;2.40;;;;;;;-144.47;71.42;52989.16;4994072;28;20396;-70
2023/01/31 11:02:23;;;;;;;15.30;2.78;;;;;;;-144.47;71.31;53016.97;4994701;28;20400;-70
2023/01/31 11:04:51;;;;;;;11.30;4.80;;;;;;;-144.47;71.08;53013.00;4994560;28;20032;-69
2023/01/31 11:07:17;;;;;;;9.25;1.90;;;;;;;-144.47;71.12;52975.25;4994823;28;20033;-67
2023/01/31 11:09:50;;;;;;;19.60;2.70;;;;;;;-144.47;71.07;52969.31;4994387;28;20104;-71
2023/01/31 11:12:16;;;;;;;20.33;2.90;;;;;;;-144.47;70.98;52995.13;4991459;28;20041;-70
2023/01/31 11:14:41;;;;;;;8.75;2.50;;;;;;;-144.47;70.87;52997.09;4991682;28;20030;-69
2023/01/31 11:17:16;;;;;;;13.93;2.53;;;;;;;-144.47;70.96;52995.13;4989358;28;20026;-69
2023/01/31 11:19:44;;;;;;;12.82;2.90;;;;;;;-144.47;70.96;53013.00;4991524;28;20151;-68
2023/01/31 11:22:23;;;;;;;13.70;3.10;;;;;;;-144.47;71.00;53007.03;4991272;28;20053;-68
2023/01/31 11:24:49;;;;;;;;;;;;;;;-144.47;71.24;52997.09;4992288;28;20145;-69
2023/01/31 11:27:25;;;;;;;12.95;2.85;;;;;;;-144.47;71.32;53007.03;4990751;28;19944;-69
2023/01/31 11:29:53;;;;;;;10.57;2.25;;;;;;;-144.47;71.62;52989.16;4986852;28;20026;-71
2023/01/31 11:32:24;;;;;;;14.70;2.70;;;;;;;-144.47;71.47;52979.22;4990840;28;20026;-69